Prins Christian Sund, Greenland
Current Conditions -  °F | °C
As of 11:50 AM on Sunday 21 Dec 2014 (Local Time) from BGBW Reporting Station
Few Clouds Few Clouds  
Wind Chill: -7°   Ceiling: Unl
Heat Index:   Visibility: 6mi
Dew Point: -8°   Wind: 7mph
Humidity: 56%   Direction: 80°E
Pressure: 29.56"   Gusts: NA
Location:  60.05°N, 43.17°W
Report Text: BGBW 211350Z 08006KT 040V110 9999 FEW120 M15/M22 Q1001
Loading
Personal Weather Stations






























Interactive Weather Map New forecast layout! Learn more

10-Day Weather Forecast

Advertisements
Track Severe Weather on mobile